createdAt,value
2023-03-29T00:00:45.217Z,9.10
2023-03-29T00:03:13.952Z,9.10
2023-03-29T00:05:41.368Z,9.10
2023-03-29T00:08:08.147Z,9.10
2023-03-29T00:10:34.960Z,9.10
2023-03-29T00:13:01.777Z,9.10
2023-03-29T00:15:28.495Z,9.20
2023-03-29T00:17:55.288Z,9.20
2023-03-29T00:20:22.328Z,9.20
2023-03-29T00:22:49.044Z,9.20
2023-03-29T00:25:15.769Z,9.20
2023-03-29T00:27:42.433Z,9.20
2023-03-29T00:30:10.178Z,9.20
2023-03-29T00:32:37.045Z,9.20
2023-03-29T00:35:06.022Z,9.20
2023-03-29T00:37:32.935Z,9.20
2023-03-29T00:39:59.863Z,9.20
2023-03-29T00:42:26.754Z,9.30
2023-03-29T00:44:53.462Z,9.30
2023-03-29T00:47:21.333Z,9.30
2023-03-29T00:49:48.259Z,9.30
2023-03-29T00:52:15.008Z,9.30
2023-03-29T00:54:43.315Z,9.30
2023-03-29T00:57:10.285Z,9.30
2023-03-29T00:59:37.033Z,9.30
2023-03-29T01:02:03.921Z,9.30
2023-03-29T01:04:31.113Z,9.30
2023-03-29T01:06:57.909Z,9.30
2023-03-29T01:09:24.853Z,9.40
2023-03-29T01:11:51.820Z,9.40
2023-03-29T01:14:18.680Z,9.40
2023-03-29T01:16:46.036Z,9.40
2023-03-29T01:19:13.770Z,9.40
2023-03-29T01:21:40.659Z,9.40
2023-03-29T01:24:07.692Z,9.40
2023-03-29T01:26:34.537Z,9.40
2023-03-29T01:29:01.339Z,9.40
2023-03-29T01:31:28.436Z,9.40
2023-03-29T01:33:55.125Z,9.40
2023-03-29T01:36:21.886Z,9.40
2023-03-29T01:38:48.595Z,9.40
2023-03-29T01:41:15.378Z,9.40
2023-03-29T01:43:42.048Z,9.40
2023-03-29T01:46:08.930Z,9.40
2023-03-29T01:48:35.690Z,9.40
2023-03-29T01:51:04.590Z,9.40
2023-03-29T01:53:31.633Z,9.40
2023-03-29T01:55:58.376Z,9.40
2023-03-29T01:58:26.494Z,9.40
2023-03-29T02:00:55.334Z,9.40
2023-03-29T02:03:22.834Z,9.40
2023-03-29T02:05:49.691Z,9.40
2023-03-29T02:08:16.398Z,9.40
2023-03-29T02:10:43.138Z,9.40
2023-03-29T02:13:11.289Z,9.40
2023-03-29T02:15:38.686Z,9.30
2023-03-29T02:18:06.641Z,9.30
2023-03-29T02:20:33.744Z,9.30
2023-03-29T02:23:02.171Z,9.20
2023-03-29T02:25:29.586Z,9.20
2023-03-29T02:27:56.491Z,9.20
2023-03-29T02:30:23.612Z,9.10
2023-03-29T02:32:50.708Z,9.10
2023-03-29T02:35:17.522Z,9.10
2023-03-29T02:37:44.331Z,9.10
2023-03-29T02:40:12.763Z,9.10
2023-03-29T02:42:39.745Z,9.10
2023-03-29T02:45:06.545Z,9.20
2023-03-29T02:47:33.386Z,9.20
2023-03-29T02:50:00.360Z,9.20
2023-03-29T02:52:27.563Z,9.20
2023-03-29T02:54:54.494Z,9.30
2023-03-29T02:57:26.642Z,9.20
2023-03-29T02:59:53.681Z,9.30
2023-03-29T03:02:20.694Z,9.30
2023-03-29T03:04:47.468Z,9.30
2023-03-29T03:07:14.203Z,9.30
2023-03-29T03:09:41.180Z,9.30
2023-03-29T03:12:09.242Z,9.40
2023-03-29T03:14:36.038Z,9.40
2023-03-29T03:17:04.717Z,9.40
2023-03-29T03:19:32.909Z,9.40
2023-03-29T03:22:00.138Z,9.50
2023-03-29T03:24:28.164Z,9.50
2023-03-29T03:26:56.756Z,9.50
2023-03-29T03:29:24.746Z,9.50
2023-03-29T03:32:12.424Z,9.50
2023-03-29T03:35:00.638Z,9.60
2023-03-29T03:37:27.811Z,9.60
2023-03-29T03:39:54.883Z,9.60
2023-03-29T03:42:22.492Z,9.60
2023-03-29T03:44:49.644Z,9.60
2023-03-29T03:47:39.458Z,9.60
2023-03-29T03:50:33.172Z,9.60
2023-03-29T03:53:01.088Z,9.60
2023-03-29T03:55:37.729Z,9.60
2023-03-29T03:58:14.984Z,9.50
2023-03-29T04:00:41.904Z,9.50
2023-03-29T04:03:33.741Z,9.50
2023-03-29T04:06:00.909Z,9.50
2023-03-29T04:08:33.313Z,9.50
2023-03-29T04:11:25.775Z,9.50
2023-03-29T04:13:53.390Z,9.50
2023-03-29T04:16:45.930Z,9.50
2023-03-29T04:19:36.011Z,9.50
2023-03-29T04:22:02.863Z,9.50
2023-03-29T04:24:29.635Z,9.50
2023-03-29T04:27:18.405Z,9.50
2023-03-29T04:29:45.331Z,9.50
2023-03-29T04:32:21.198Z,9.40
2023-03-29T04:35:04.888Z,9.40
2023-03-29T04:37:31.866Z,9.40
2023-03-29T04:40:04.545Z,9.40
2023-03-29T04:42:44.785Z,9.40
2023-03-29T04:45:14.000Z,9.40
2023-03-29T04:48:02.516Z,9.40
2023-03-29T04:50:29.761Z,9.40
2023-03-29T04:52:57.162Z,9.40
2023-03-29T04:55:24.614Z,9.40
2023-03-29T04:58:01.399Z,9.40
2023-03-29T05:00:33.374Z,9.40
2023-03-29T05:03:06.984Z,9.40
2023-03-29T05:05:38.570Z,9.40
2023-03-29T05:08:07.209Z,9.40
2023-03-29T05:10:43.708Z,9.40
2023-03-29T05:13:11.287Z,9.40
2023-03-29T05:15:41.231Z,9.40
2023-03-29T05:18:08.470Z,9.40
2023-03-29T05:20:36.027Z,9.40
2023-03-29T05:23:03.301Z,9.40
2023-03-29T05:25:50.264Z,9.30
2023-03-29T05:28:17.234Z,9.30
2023-03-29T05:30:44.730Z,9.30
2023-03-29T05:33:29.616Z,9.30
2023-03-29T05:35:57.250Z,9.30
2023-03-29T05:38:24.071Z,9.30
2023-03-29T05:40:52.987Z,9.20
2023-03-29T05:43:39.699Z,9.20
2023-03-29T05:46:07.403Z,9.20
2023-03-29T05:48:36.358Z,9.20
2023-03-29T05:51:03.529Z,9.20
2023-03-29T05:53:30.665Z,9.20
2023-03-29T05:55:57.615Z,9.20
2023-03-29T05:58:28.463Z,9.20
2023-03-29T06:00:55.339Z,9.20
2023-03-29T06:03:42.492Z,9.20
2023-03-29T06:06:10.222Z,9.20
2023-03-29T06:08:37.669Z,9.30
2023-03-29T06:11:15.646Z,9.30
2023-03-29T06:14:00.904Z,9.30
2023-03-29T06:16:27.728Z,9.30
2023-03-29T06:18:54.540Z,9.40
2023-03-29T06:21:22.380Z,9.40
2023-03-29T06:23:49.254Z,9.50
2023-03-29T06:26:17.904Z,9.50
2023-03-29T06:28:46.284Z,9.50
2023-03-29T06:31:13.375Z,9.60
2023-03-29T06:33:43.219Z,9.60
2023-03-29T06:36:34.966Z,9.70
2023-03-29T06:39:06.548Z,9.80
2023-03-29T06:41:52.408Z,9.80
2023-03-29T06:44:42.180Z,9.90
2023-03-29T06:47:17.642Z,10.00
2023-03-29T06:49:44.793Z,10.10
2023-03-29T06:52:27.682Z,10.20
2023-03-29T06:54:54.632Z,10.20
2023-03-29T06:57:24.050Z,10.20
2023-03-29T06:59:51.082Z,10.30
2023-03-29T07:02:37.892Z,10.30
2023-03-29T07:05:13.562Z,10.40
2023-03-29T07:07:55.598Z,10.50
2023-03-29T07:10:42.807Z,10.50
2023-03-29T07:13:28.548Z,10.50
2023-03-29T07:15:58.629Z,10.50
2023-03-29T07:18:45.689Z,10.50
2023-03-29T07:21:21.153Z,10.50
2023-03-29T07:23:47.990Z,10.50
2023-03-29T07:26:28.848Z,10.40
2023-03-29T07:28:57.533Z,10.50
2023-03-29T07:31:24.986Z,10.40
2023-03-29T07:34:00.782Z,10.40
2023-03-29T07:36:28.688Z,10.40
2023-03-29T07:38:56.857Z,10.50
2023-03-29T07:41:24.980Z,10.50
2023-03-29T07:44:04.985Z,10.60
2023-03-29T07:46:33.003Z,10.60
2023-03-29T07:48:59.722Z,10.70
2023-03-29T07:51:26.981Z,10.70
2023-03-29T07:54:06.479Z,10.70
2023-03-29T07:56:54.352Z,10.80
2023-03-29T07:59:28.476Z,10.80
2023-03-29T08:02:05.199Z,10.90
2023-03-29T08:04:37.476Z,10.90
2023-03-29T08:07:18.827Z,10.90
2023-03-29T08:10:01.238Z,11.00
2023-03-29T08:12:48.826Z,11.10
2023-03-29T08:15:16.664Z,11.20
2023-03-29T08:17:43.713Z,11.30
2023-03-29T08:20:11.101Z,11.30
2023-03-29T08:22:40.308Z,11.30
2023-03-29T08:25:39.499Z,11.40
2023-03-29T08:28:06.550Z,11.50
2023-03-29T08:30:41.372Z,11.60
2023-03-29T08:33:08.275Z,11.60
2023-03-29T08:35:35.765Z,11.70
2023-03-29T08:38:25.159Z,11.60
2023-03-29T08:40:52.653Z,11.60
2023-03-29T08:43:20.855Z,11.60
2023-03-29T08:46:06.391Z,11.50
2023-03-29T08:48:33.954Z,11.50
2023-03-29T08:51:03.808Z,11.40
2023-03-29T08:53:32.158Z,11.40
2023-03-29T08:56:21.846Z,11.40
2023-03-29T08:59:08.047Z,11.50
2023-03-29T09:01:38.362Z,11.50
2023-03-29T09:04:05.347Z,11.50
2023-03-29T09:06:55.157Z,11.60
2023-03-29T09:09:26.684Z,11.60
2023-03-29T09:11:54.898Z,11.60
2023-03-29T09:14:21.758Z,11.70
2023-03-29T09:16:50.143Z,11.70
2023-03-29T09:19:17.017Z,11.80
2023-03-29T09:21:44.196Z,11.90
2023-03-29T09:24:11.241Z,11.90
2023-03-29T09:26:57.443Z,11.90
2023-03-29T09:29:29.990Z,12.00
2023-03-29T09:31:56.980Z,12.00
2023-03-29T09:34:24.558Z,12.00
2023-03-29T09:36:56.693Z,12.10
2023-03-29T09:39:23.502Z,12.10
2023-03-29T09:41:57.202Z,12.10
2023-03-29T09:44:30.972Z,12.20
2023-03-29T09:47:03.795Z,12.20
2023-03-29T09:49:33.028Z,12.30
2023-03-29T09:51:59.935Z,12.30
2023-03-29T09:54:26.757Z,12.30
2023-03-29T09:57:11.876Z,12.30
2023-03-29T09:59:38.927Z,12.30
2023-03-29T10:02:06.004Z,12.30
2023-03-29T10:04:33.337Z,12.40
2023-03-29T10:07:01.022Z,12.40
2023-03-29T10:09:28.169Z,12.50
2023-03-29T10:12:05.091Z,12.50
2023-03-29T10:14:32.638Z,12.60
2023-03-29T10:16:59.672Z,12.60
2023-03-29T10:19:27.712Z,12.70
2023-03-29T10:21:55.064Z,12.80
2023-03-29T10:24:21.806Z,12.80
2023-03-29T10:26:49.461Z,12.90
2023-03-29T10:29:16.146Z,13.00
2023-03-29T10:31:43.390Z,13.00
2023-03-29T10:34:10.168Z,12.90
2023-03-29T10:36:37.105Z,12.90
2023-03-29T10:39:05.918Z,12.90
2023-03-29T10:41:34.157Z,12.80
2023-03-29T10:44:00.904Z,12.80
2023-03-29T10:46:27.717Z,12.80
2023-03-29T10:48:54.473Z,12.80
2023-03-29T10:51:21.241Z,12.80
2023-03-29T10:53:47.997Z,12.80
2023-03-29T10:56:14.683Z,12.80
2023-03-29T10:58:41.793Z,12.80
2023-03-29T11:01:08.596Z,12.80
2023-03-29T11:03:35.490Z,12.80
2023-03-29T11:06:02.996Z,12.80
2023-03-29T11:08:31.735Z,12.80
2023-03-29T11:10:59.564Z,12.80
2023-03-29T11:13:27.223Z,12.80
2023-03-29T11:15:53.997Z,12.80
2023-03-29T11:18:20.735Z,12.80
2023-03-29T11:20:47.440Z,12.80
2023-03-29T11:23:14.156Z,12.70
2023-03-29T11:25:40.872Z,12.70
2023-03-29T11:28:07.695Z,12.70
2023-03-29T11:30:35.222Z,12.80
2023-03-29T11:33:03.004Z,12.80
2023-03-29T11:35:29.835Z,12.90
2023-03-29T11:37:56.497Z,13.00
2023-03-29T11:40:23.225Z,13.10
2023-03-29T11:42:50.148Z,13.10
2023-03-29T11:45:17.014Z,13.20
2023-03-29T11:47:44.547Z,13.20
2023-03-29T11:50:11.440Z,13.30
2023-03-29T11:52:38.799Z,13.40
2023-03-29T11:55:05.564Z,13.40
2023-03-29T11:57:33.126Z,13.50
2023-03-29T11:59:59.877Z,13.50
2023-03-29T12:02:27.510Z,13.50
2023-03-29T12:04:54.325Z,13.50
2023-03-29T12:07:21.041Z,13.50
2023-03-29T12:09:50.073Z,13.50
2023-03-29T12:12:16.800Z,13.50
2023-03-29T12:14:43.594Z,13.50
2023-03-29T12:17:10.486Z,13.50
2023-03-29T12:19:41.807Z,13.50
2023-03-29T12:22:10.203Z,13.50
2023-03-29T12:24:41.001Z,13.60
2023-03-29T12:27:08.392Z,13.70
2023-03-29T12:29:35.278Z,13.90
2023-03-29T12:32:02.092Z,14.00
2023-03-29T12:34:40.768Z,14.20
2023-03-29T12:37:32.052Z,14.30
2023-03-29T12:40:24.789Z,14.40
2023-03-29T12:43:21.176Z,14.30
2023-03-29T12:46:26.602Z,14.30
2023-03-29T12:48:53.493Z,14.20
2023-03-29T12:51:20.189Z,14.20
2023-03-29T12:53:46.928Z,14.30
2023-03-29T12:56:13.872Z,14.40
2023-03-29T12:58:41.517Z,14.50
2023-03-29T13:01:08.307Z,14.60
2023-03-29T13:03:35.196Z,14.70
2023-03-29T13:06:02.602Z,14.70
2023-03-29T13:08:29.639Z,14.70
2023-03-29T13:10:56.369Z,14.70
2023-03-29T13:13:23.131Z,14.60
2023-03-29T13:15:49.892Z,14.50
2023-03-29T13:18:16.784Z,14.50
2023-03-29T13:20:43.491Z,14.50
2023-03-29T13:23:10.263Z,14.60
2023-03-29T13:25:37.129Z,14.60
2023-03-29T13:28:04.522Z,14.70
2023-03-29T13:30:31.717Z,14.80
2023-03-29T13:32:58.514Z,14.80
2023-03-29T13:35:25.755Z,14.80
2023-03-29T13:37:54.178Z,14.80
2023-03-29T13:40:21.728Z,14.70
2023-03-29T13:42:48.556Z,14.70
2023-03-29T13:45:15.421Z,14.80
2023-03-29T13:47:48.999Z,14.80
2023-03-29T13:50:25.679Z,14.80
2023-03-29T13:52:52.410Z,14.80
2023-03-29T13:55:19.364Z,14.80
2023-03-29T13:57:46.085Z,14.90
2023-03-29T14:00:15.643Z,15.00
2023-03-29T14:02:42.682Z,15.10
2023-03-29T14:05:09.522Z,15.30
2023-03-29T14:07:36.530Z,15.40
2023-03-29T14:10:03.382Z,15.40
2023-03-29T14:12:30.098Z,15.50
2023-03-29T14:14:59.329Z,15.50
2023-03-29T14:17:26.718Z,15.40
2023-03-29T14:19:53.485Z,15.40
2023-03-29T14:22:20.491Z,15.40
2023-03-29T14:24:51.633Z,15.30
2023-03-29T14:27:19.177Z,15.30
2023-03-29T14:29:46.031Z,15.20
2023-03-29T14:32:13.049Z,15.20
2023-03-29T14:34:39.958Z,15.10
2023-03-29T14:37:07.272Z,15.20
2023-03-29T14:39:34.022Z,15.20
2023-03-29T14:42:00.934Z,15.30
2023-03-29T14:44:27.627Z,15.40
2023-03-29T14:46:54.374Z,15.50
2023-03-29T14:49:21.213Z,15.60
2023-03-29T14:51:47.976Z,15.60
2023-03-29T14:54:14.761Z,15.60
2023-03-29T14:56:42.229Z,15.60
2023-03-29T14:59:08.928Z,15.80
2023-03-29T15:01:35.753Z,15.80
2023-03-29T15:04:02.606Z,15.80
2023-03-29T15:06:29.371Z,15.90
2023-03-29T15:09:05.373Z,15.90
2023-03-29T15:11:34.540Z,15.80
2023-03-29T15:14:01.744Z,15.80
2023-03-29T15:16:30.488Z,15.80
2023-03-29T15:18:57.559Z,15.80
2023-03-29T15:21:24.323Z,15.80
2023-03-29T15:23:51.064Z,15.70
2023-03-29T15:26:17.784Z,15.80
2023-03-29T15:28:44.486Z,15.80
2023-03-29T15:31:12.017Z,15.80
2023-03-29T15:33:39.010Z,15.80
2023-03-29T15:36:06.417Z,15.80
2023-03-29T15:38:42.573Z,15.80
2023-03-29T15:41:10.634Z,15.80
2023-03-29T15:43:37.358Z,15.70
2023-03-29T15:46:04.428Z,15.70
2023-03-29T15:48:33.686Z,15.70
2023-03-29T15:51:04.628Z,15.70
2023-03-29T15:53:33.076Z,15.70
2023-03-29T15:55:59.794Z,15.60
2023-03-29T15:58:27.083Z,15.60
2023-03-29T16:00:53.846Z,15.50
2023-03-29T16:03:22.369Z,15.50
2023-03-29T16:05:49.153Z,15.50
2023-03-29T16:08:16.080Z,15.40
2023-03-29T16:10:43.947Z,15.40
2023-03-29T16:13:10.756Z,15.40
2023-03-29T16:15:37.466Z,15.40
2023-03-29T16:18:04.235Z,15.40
2023-03-29T16:20:31.250Z,15.40
2023-03-29T16:22:57.941Z,15.40
2023-03-29T16:25:24.644Z,15.40
2023-03-29T16:27:51.425Z,15.50
2023-03-29T16:30:18.153Z,15.50
2023-03-29T16:32:45.053Z,15.50
2023-03-29T16:35:12.415Z,15.60
2023-03-29T16:37:39.172Z,15.60
2023-03-29T16:40:07.812Z,15.50
2023-03-29T16:42:34.639Z,15.50
2023-03-29T16:45:02.312Z,15.50
2023-03-29T16:47:29.104Z,15.40
2023-03-29T16:49:56.193Z,15.40
2023-03-29T16:52:23.273Z,15.30
2023-03-29T16:54:50.042Z,15.20
2023-03-29T16:57:16.804Z,15.30
2023-03-29T16:59:47.423Z,15.20
2023-03-29T17:02:14.158Z,15.20
2023-03-29T17:04:40.982Z,15.20
2023-03-29T17:07:07.731Z,15.20
2023-03-29T17:09:34.402Z,15.20
2023-03-29T17:12:01.163Z,15.10
2023-03-29T17:14:27.850Z,15.10
2023-03-29T17:16:54.590Z,15.10
2023-03-29T17:19:21.483Z,15.10
2023-03-29T17:21:48.377Z,15.00
2023-03-29T17:24:15.328Z,15.00
2023-03-29T17:26:43.895Z,14.90
2023-03-29T17:29:12.535Z,14.80
2023-03-29T17:31:46.953Z,14.80
2023-03-29T17:34:13.875Z,14.70
2023-03-29T17:36:41.229Z,14.70
2023-03-29T17:39:08.043Z,14.60
2023-03-29T17:41:34.827Z,14.60
2023-03-29T17:44:01.589Z,14.60
2023-03-29T17:46:28.355Z,14.40
2023-03-29T17:48:56.105Z,14.30
2023-03-29T17:51:23.745Z,14.20
2023-03-29T17:53:52.412Z,14.10
2023-03-29T17:56:22.841Z,14.00
2023-03-29T17:58:49.555Z,13.90
2023-03-29T18:01:16.784Z,13.80
2023-03-29T18:03:43.640Z,13.80
2023-03-29T18:06:10.336Z,13.60
2023-03-29T18:08:37.618Z,13.60
2023-03-29T18:11:04.329Z,13.60
2023-03-29T18:13:30.994Z,13.50
2023-03-29T18:15:57.860Z,13.50
2023-03-29T18:18:24.573Z,13.50
2023-03-29T18:20:51.631Z,13.50
2023-03-29T18:23:18.427Z,13.50
2023-03-29T18:25:45.282Z,13.50
2023-03-29T18:28:11.985Z,13.40
2023-03-29T18:30:38.739Z,13.40
2023-03-29T18:33:05.570Z,13.30
2023-03-29T18:35:32.349Z,13.30
2023-03-29T18:37:59.203Z,13.20
2023-03-29T18:40:25.897Z,13.20
2023-03-29T18:42:52.727Z,13.10
2023-03-29T18:45:19.516Z,13.00
2023-03-29T18:47:46.883Z,12.90
2023-03-29T18:50:13.711Z,12.90
2023-03-29T18:52:40.599Z,12.90
2023-03-29T18:55:07.374Z,12.90
2023-03-29T18:57:34.214Z,12.80
2023-03-29T19:00:00.990Z,12.70
2023-03-29T19:02:27.823Z,12.60
2023-03-29T19:04:54.827Z,12.50
2023-03-29T19:07:22.585Z,12.50
2023-03-29T19:09:49.370Z,12.50
2023-03-29T19:12:16.123Z,12.30
2023-03-29T19:14:42.876Z,12.30
2023-03-29T19:17:09.612Z,12.30
2023-03-29T19:19:37.832Z,12.30
2023-03-29T19:22:04.516Z,12.30
2023-03-29T19:24:31.208Z,12.20
2023-03-29T19:26:58.359Z,12.20
2023-03-29T19:29:25.786Z,12.20
2023-03-29T19:31:54.532Z,12.10
2023-03-29T19:34:23.343Z,12.10
2023-03-29T19:36:50.051Z,12.10
2023-03-29T19:39:16.861Z,12.00
2023-03-29T19:41:43.615Z,12.00
2023-03-29T19:44:10.385Z,12.00
2023-03-29T19:46:37.117Z,12.00
2023-03-29T19:49:05.710Z,11.90
2023-03-29T19:51:32.573Z,12.00
2023-03-29T19:53:59.367Z,11.90
2023-03-29T19:56:26.066Z,11.90
2023-03-29T19:58:52.749Z,11.90
2023-03-29T20:01:22.615Z,11.90
2023-03-29T20:03:49.448Z,11.90
2023-03-29T20:06:16.693Z,11.90
2023-03-29T20:08:43.538Z,11.90
2023-03-29T20:11:11.511Z,11.90
2023-03-29T20:13:41.468Z,12.00
2023-03-29T20:16:08.302Z,12.00
2023-03-29T20:18:34.982Z,12.00
2023-03-29T20:21:02.312Z,12.00
2023-03-29T20:23:29.987Z,12.00
2023-03-29T20:25:57.132Z,11.90
2023-03-29T20:28:23.970Z,11.90
2023-03-29T20:30:51.368Z,12.00
2023-03-29T20:33:18.157Z,12.00
2023-03-29T20:35:44.946Z,12.00
2023-03-29T20:38:11.779Z,12.00
2023-03-29T20:40:40.841Z,12.00
2023-03-29T20:43:07.946Z,12.10
2023-03-29T20:45:46.169Z,12.10
2023-03-29T20:48:18.862Z,12.10
2023-03-29T20:50:47.268Z,12.10
2023-03-29T20:53:14.675Z,12.10
2023-03-29T20:55:42.706Z,12.10
2023-03-29T20:58:09.493Z,12.10
2023-03-29T21:00:37.653Z,12.10
2023-03-29T21:03:04.567Z,12.10
2023-03-29T21:05:31.858Z,12.10
2023-03-29T21:07:58.577Z,12.20
2023-03-29T21:10:25.267Z,12.20
2023-03-29T21:12:52.065Z,12.20
2023-03-29T21:15:18.821Z,12.20
2023-03-29T21:17:46.006Z,12.30
2023-03-29T21:20:12.725Z,12.30
2023-03-29T21:22:39.435Z,12.30
2023-03-29T21:25:06.567Z,12.30
2023-03-29T21:27:33.325Z,12.30
2023-03-29T21:29:59.989Z,12.30
2023-03-29T21:32:26.729Z,12.30
2023-03-29T21:34:53.449Z,12.30
2023-03-29T21:37:20.144Z,12.30
2023-03-29T21:39:46.855Z,12.30
2023-03-29T21:42:13.639Z,12.40
2023-03-29T21:44:40.527Z,12.40
2023-03-29T21:47:07.381Z,12.40
2023-03-29T21:49:34.064Z,12.40
2023-03-29T21:52:00.778Z,12.40
2023-03-29T21:54:27.558Z,12.40
2023-03-29T21:56:54.330Z,12.40
2023-03-29T21:59:21.035Z,12.40
2023-03-29T22:01:47.986Z,12.40
2023-03-29T22:04:25.550Z,12.40
2023-03-29T22:07:00.184Z,12.40
2023-03-29T22:09:26.890Z,12.50
2023-03-29T22:11:53.674Z,12.40
2023-03-29T22:14:20.482Z,12.40
2023-03-29T22:16:47.396Z,12.50
2023-03-29T22:19:14.087Z,12.50
2023-03-29T22:21:40.930Z,12.50
2023-03-29T22:24:07.851Z,12.50
2023-03-29T22:26:34.586Z,12.50
2023-03-29T22:29:01.436Z,12.50
2023-03-29T22:31:28.238Z,12.50
2023-03-29T22:33:55.102Z,12.50
2023-03-29T22:36:24.560Z,12.50
2023-03-29T22:38:51.511Z,12.50
2023-03-29T22:41:18.363Z,12.50
2023-03-29T22:43:45.079Z,12.50
2023-03-29T22:46:11.776Z,12.50
2023-03-29T22:48:38.590Z,12.40
2023-03-29T22:51:05.881Z,12.40
2023-03-29T22:53:32.858Z,12.30
2023-03-29T22:55:59.585Z,12.30
2023-03-29T22:58:26.779Z,12.30
2023-03-29T23:00:53.505Z,12.30
2023-03-29T23:03:20.271Z,12.30
2023-03-29T23:05:46.962Z,12.30
2023-03-29T23:08:13.682Z,12.30
2023-03-29T23:10:40.413Z,12.20
2023-03-29T23:13:10.099Z,12.20
2023-03-29T23:15:36.931Z,12.30
2023-03-29T23:18:04.756Z,12.20
2023-03-29T23:20:31.991Z,12.30
2023-03-29T23:22:58.734Z,12.30
2023-03-29T23:25:25.603Z,12.30
2023-03-29T23:27:52.497Z,12.30
2023-03-29T23:30:19.868Z,12.30
2023-03-29T23:32:47.019Z,12.30
2023-03-29T23:35:13.795Z,12.30
2023-03-29T23:37:40.600Z,12.30
2023-03-29T23:40:16.834Z,12.30
2023-03-29T23:42:43.590Z,12.30
2023-03-29T23:45:10.300Z,12.30
2023-03-29T23:47:37.129Z,12.30
2023-03-29T23:50:03.862Z,12.40
2023-03-29T23:52:32.610Z,12.30
2023-03-29T23:54:59.360Z,12.30
2023-03-29T23:57:29.298Z,12.30
2023-03-29T23:59:56.255Z,12.40
